Time;durP1;ratioP1;P1;durP2;ratioP2;P2;SDS_P1;SDS_P2;PMS_P1;PMS_P2;Temp;Humidity;BMP_temperature;BMP_pressure;BME280_temperature;BME280_humidity;BME280_pressure;Samples;Min_cycle;Max_cycle;Signal;HPM_P1;HPM_P2
2020/12/18 00:02:22;;;;;;;111.53;39.60;;;;;;;;;;5119629;28;19903;-78
2020/12/18 00:04:48;;;;;;;109.28;39.92;;;;;;;;;;5122607;27;20039;-78
2020/12/18 00:07:14;;;;;;;105.60;38.33;;;;;;;;;;5141386;27;20469;-79
2020/12/18 00:09:41;;;;;;;110.20;38.17;;;;;;;;;;5141754;27;20408;-79
2020/12/18 00:12:07;;;;;;;115.30;40.15;;;;;;;;;;5123355;27;20035;-79
2020/12/18 00:14:34;;;;;;;118.95;39.47;;;;;;;;;;5141490;27;20039;-79
2020/12/18 00:17:00;;;;;;;110.68;39.58;;;;;;;;;;5141289;27;20019;-79
2020/12/18 00:19:26;;;;;;;110.38;37.78;;;;;;;;;;5122747;27;20053;-80
2020/12/18 00:21:56;;;;;;;108.65;39.05;;;;;;;;;;5141574;27;20321;-80
2020/12/18 00:24:22;;;;;;;110.47;41.40;;;;;;;;;;5141609;27;20019;-80
2020/12/18 00:26:48;;;;;;;115.35;40.15;;;;;;;;;;5141262;27;20600;-80
2020/12/18 00:29:14;;;;;;;114.18;40.40;;;;;;;;;;5141444;27;20035;-80
2020/12/18 00:31:40;;;;;;;112.13;39.30;;;;;;;;;;5141451;27;20062;-80
2020/12/18 00:34:06;;;;;;;112.15;39.85;;;;;;;;;;5141118;27;20025;-80
2020/12/18 00:36:32;;;;;;;115.22;39.17;;;;;;;;;;5141141;27;20019;-80
2020/12/18 00:39:00;;;;;;;114.20;39.10;;;;;;;;;;5141031;27;20019;-81
2020/12/18 00:41:26;;;;;;;118.32;39.63;;;;;;;;;;5122609;27;20058;-80
2020/12/18 00:43:52;;;;;;;114.43;40.90;;;;;;;;;;5123286;27;20400;-80
2020/12/18 00:46:18;;;;;;;110.68;37.45;;;;;;;;;;5141131;27;20023;-81
2020/12/18 00:48:44;;;;;;;135.27;45.70;;;;;;;;;;5141215;27;20345;-79
2020/12/18 00:51:10;;;;;;;104.38;38.22;;;;;;;;;;5122949;27;20492;-81
2020/12/18 00:53:36;;;;;;;106.95;37.58;;;;;;;;;;5122602;27;20027;-79
2020/12/18 00:56:08;;;;;;;105.80;41.17;;;;;;;;;;5141108;27;20011;-81
2020/12/18 00:58:35;;;;;;;;;;;;;;;;;;5141468;27;20306;-80
2020/12/18 01:01:01;;;;;;;114.60;44.03;;;;;;;;;;5141194;27;19914;-81
2020/12/18 01:03:27;;;;;;;116.35;46.45;;;;;;;;;;5122646;27;20027;-79
2020/12/18 01:05:53;;;;;;;108.07;42.70;;;;;;;;;;5140460;27;20091;-78
2020/12/18 01:08:19;;;;;;;102.97;39.33;;;;;;;;;;5140550;27;20045;-79
2020/12/18 01:10:45;;;;;;;107.97;41.70;;;;;;;;;;5140169;27;20415;-79
2020/12/18 01:13:11;;;;;;;108.95;40.75;;;;;;;;;;5140204;27;20024;-79
2020/12/18 01:15:37;;;;;;;90.45;35.35;;;;;;;;;;5139716;27;20052;-79
2020/12/18 01:18:04;;;;;;;97.32;37.90;;;;;;;;;;5140515;27;20097;-79
2020/12/18 01:20:30;;;;;;;87.43;36.00;;;;;;;;;;5140152;27;20460;-79
2020/12/18 01:22:56;;;;;;;85.03;34.25;;;;;;;;;;5140195;27;20027;-78
2020/12/18 01:25:22;;;;;;;83.80;32.22;;;;;;;;;;5140057;27;20048;-78
2020/12/18 01:27:48;;;;;;;76.05;32.92;;;;;;;;;;5140261;27;20290;-78
2020/12/18 01:30:14;;;;;;;80.32;33.88;;;;;;;;;;5140066;27;20027;-79
2020/12/18 01:32:40;;;;;;;74.15;30.35;;;;;;;;;;5139932;27;20110;-79
2020/12/18 01:35:06;;;;;;;72.97;30.63;;;;;;;;;;5140073;27;20015;-79
2020/12/18 01:37:32;;;;;;;64.35;28.10;;;;;;;;;;5140131;27;20030;-79
2020/12/18 01:39:58;;;;;;;64.15;28.85;;;;;;;;;;5139767;27;20107;-78
2020/12/18 01:42:24;;;;;;;64.53;29.52;;;;;;;;;;5139502;27;20047;-78
2020/12/18 01:44:50;;;;;;;73.05;29.60;;;;;;;;;;5140032;27;20019;-79
2020/12/18 01:47:19;;;;;;;75.95;31.05;;;;;;;;;;5121697;27;20077;-78
2020/12/18 01:49:45;;;;;;;77.15;31.20;;;;;;;;;;5139805;27;20034;-79
2020/12/18 01:52:12;;;;;;;77.68;31.00;;;;;;;;;;5139448;27;20054;-79
2020/12/18 01:54:38;;;;;;;77.97;31.23;;;;;;;;;;5139807;27;20064;-78
2020/12/18 01:57:04;;;;;;;76.40;32.05;;;;;;;;;;5139462;27;20027;-78
2020/12/18 01:59:30;;;;;;;77.05;32.72;;;;;;;;;;5139706;27;20020;-78
2020/12/18 02:01:56;;;;;;;76.95;32.15;;;;;;;;;;5139662;27;20405;-78
2020/12/18 02:04:22;;;;;;;79.38;33.67;;;;;;;;;;5139356;27;20031;-78
2020/12/18 02:06:54;;;;;;;88.22;35.42;;;;;;;;;;5139522;27;20033;-80
2020/12/18 02:09:20;;;;;;;86.30;33.92;;;;;;;;;;5139142;27;20023;-79
2020/12/18 02:11:46;;;;;;;91.72;35.13;;;;;;;;;;5139097;27;20072;-81
2020/12/18 02:14:13;;;;;;;94.85;36.03;;;;;;;;;;5139458;27;20034;-77
2020/12/18 02:16:40;;;;;;;96.47;36.80;;;;;;;;;;5139185;27;20019;-78
2020/12/18 02:19:07;;;;;;;112.30;37.38;;;;;;;;;;5139316;27;20023;-79
2020/12/18 02:21:39;;;;;;;102.95;36.20;;;;;;;;;;5139071;27;20019;-79
2020/12/18 02:24:05;;;;;;;100.13;37.30;;;;;;;;;;5138796;27;20062;-79
2020/12/18 02:26:31;;;;;;;105.03;35.35;;;;;;;;;;5138323;27;20027;-78
2020/12/18 02:28:57;;;;;;;100.63;36.63;;;;;;;;;;5139034;27;20035;-78
2020/12/18 02:31:23;;;;;;;94.32;34.90;;;;;;;;;;5120074;27;20067;-78
2020/12/18 02:33:49;;;;;;;93.30;34.97;;;;;;;;;;5138933;27;20023;-79
2020/12/18 02:36:24;;;;;;;97.53;34.78;;;;;;;;;;5138829;27;20094;-79
2020/12/18 02:38:50;;;;;;;95.30;33.83;;;;;;;;;;5120460;27;20030;-78
2020/12/18 02:41:16;;;;;;;96.70;33.75;;;;;;;;;;5120321;27;20127;-79
2020/12/18 02:43:42;;;;;;;94.78;34.30;;;;;;;;;;5138786;27;20019;-79
2020/12/18 02:46:09;;;;;;;87.72;34.05;;;;;;;;;;5138871;27;20027;-79
2020/12/18 02:48:35;;;;;;;92.82;34.67;;;;;;;;;;5119725;27;20035;-79
2020/12/18 02:51:01;;;;;;;110.63;37.17;;;;;;;;;;5138738;27;20049;-79
2020/12/18 02:53:27;;;;;;;106.53;35.88;;;;;;;;;;5138368;27;20019;-77
2020/12/18 02:55:53;;;;;;;102.72;37.20;;;;;;;;;;5138749;27;20047;-78
2020/12/18 02:58:19;;;;;;;109.10;35.58;;;;;;;;;;5120582;27;20023;-78
2020/12/18 03:00:46;;;;;;;112.40;38.53;;;;;;;;;;5120107;27;20031;-78
2020/12/18 03:03:12;;;;;;;103.85;35.03;;;;;;;;;;5138758;27;20068;-79
2020/12/18 03:05:38;;;;;;;111.70;36.92;;;;;;;;;;5138415;27;20072;-80
2020/12/18 03:08:04;;;;;;;106.47;36.92;;;;;;;;;;5138693;27;20046;-79
2020/12/18 03:10:30;;;;;;;109.03;36.17;;;;;;;;;;5138201;27;20023;-79
2020/12/18 03:12:56;;;;;;;104.75;37.13;;;;;;;;;;5138042;27;20054;-79
2020/12/18 03:15:22;;;;;;;101.35;35.13;;;;;;;;;;5138630;27;20050;-79
2020/12/18 03:17:48;;;;;;;103.00;35.03;;;;;;;;;;5119505;27;20027;-79
2020/12/18 03:20:14;;;;;;;94.15;34.30;;;;;;;;;;5138252;27;20046;-78
2020/12/18 03:22:41;;;;;;;96.53;33.53;;;;;;;;;;5138289;27;20148;-77
2020/12/18 03:25:07;;;;;;;100.53;34.47;;;;;;;;;;5138016;27;20042;-77
2020/12/18 03:27:33;;;;;;;100.85;34.67;;;;;;;;;;5138450;27;20030;-77
2020/12/18 03:29:59;;;;;;;106.05;37.10;;;;;;;;;;5138165;27;20023;-77
2020/12/18 03:32:25;;;;;;;104.30;35.72;;;;;;;;;;5138222;27;20102;-77
2020/12/18 03:34:51;;;;;;;113.38;37.50;;;;;;;;;;5137683;27;20023;-77
2020/12/18 03:37:18;;;;;;;117.90;38.20;;;;;;;;;;5137564;27;20015;-77
2020/12/18 03:39:44;;;;;;;125.68;38.83;;;;;;;;;;5138089;27;20026;-77
2020/12/18 03:42:10;;;;;;;121.60;37.95;;;;;;;;;;5137384;27;20061;-77
2020/12/18 03:44:36;;;;;;;122.05;38.95;;;;;;;;;;5137667;27;20113;-78
2020/12/18 03:47:02;;;;;;;124.30;39.03;;;;;;;;;;5137667;28;20038;-77
2020/12/18 03:49:28;;;;;;;132.85;39.92;;;;;;;;;;5137715;28;20031;-77
2020/12/18 03:51:54;;;;;;;126.55;40.13;;;;;;;;;;5137614;27;20028;-77
2020/12/18 03:54:20;;;;;;;138.70;42.28;;;;;;;;;;5119411;28;20028;-77
2020/12/18 03:56:46;;;;;;;152.73;43.65;;;;;;;;;;5137888;28;20401;-77
2020/12/18 03:59:12;;;;;;;147.90;48.10;;;;;;;;;;5137761;27;20020;-79
2020/12/18 04:01:38;;;;;;;168.65;51.70;;;;;;;;;;5137491;27;20058;-79
2020/12/18 04:04:04;;;;;;;158.02;45.58;;;;;;;;;;5137800;27;20019;-78
2020/12/18 04:06:30;;;;;;;140.05;43.92;;;;;;;;;;5137452;28;20027;-79
2020/12/18 04:08:56;;;;;;;147.10;43.60;;;;;;;;;;5137631;27;20026;-79
2020/12/18 04:11:22;;;;;;;141.18;42.17;;;;;;;;;;5137520;27;20074;-78
2020/12/18 04:13:49;;;;;;;148.45;44.63;;;;;;;;;;5137385;27;20053;-78
2020/12/18 04:16:17;;;;;;;144.30;44.47;;;;;;;;;;5137128;28;20023;-78
2020/12/18 04:18:43;;;;;;;134.60;43.08;;;;;;;;;;5118723;28;20031;-77
2020/12/18 04:21:09;;;;;;;145.98;43.20;;;;;;;;;;5137564;27;20027;-79
2020/12/18 04:23:36;;;;;;;130.60;42.88;;;;;;;;;;5137369;28;20027;-79
2020/12/18 04:26:02;;;;;;;136.90;42.33;;;;;;;;;;5137352;27;20019;-79
2020/12/18 04:28:28;;;;;;;137.70;42.90;;;;;;;;;;5137478;28;20056;-79
2020/12/18 04:30:55;;;;;;;143.05;45.25;;;;;;;;;;5137183;27;20031;-78
2020/12/18 04:33:21;;;;;;;135.70;43.85;;;;;;;;;;5136986;27;20465;-78
2020/12/18 04:35:47;;;;;;;179.48;55.65;;;;;;;;;;5118855;28;20302;-78
2020/12/18 04:38:13;;;;;;;415.45;111.55;;;;;;;;;;5137407;28;20317;-79
2020/12/18 04:40:41;;;;;;;228.25;68.97;;;;;;;;;;5137164;27;20320;-78
2020/12/18 04:43:07;;;;;;;166.20;48.38;;;;;;;;;;5137150;27;20055;-78
2020/12/18 04:45:33;;;;;;;136.32;41.97;;;;;;;;;;5137440;27;20407;-78
2020/12/18 04:48:01;;;;;;;124.30;38.60;;;;;;;;;;5137645;27;20031;-79
2020/12/18 04:50:28;;;;;;;120.78;38.38;;;;;;;;;;5140261;27;20039;-77
2020/12/18 04:52:56;;;;;;;120.30;38.33;;;;;;;;;;5140710;27;20031;-77
2020/12/18 04:55:27;;;;;;;122.78;38.88;;;;;;;;;;5140617;27;20019;-78
2020/12/18 04:57:53;;;;;;;126.97;40.10;;;;;;;;;;5140989;27;20102;-78
2020/12/18 05:00:20;;;;;;;131.20;41.17;;;;;;;;;;5140892;27;20417;-77
2020/12/18 05:02:47;;;;;;;129.18;42.15;;;;;;;;;;5122579;27;20050;-77
2020/12/18 05:05:13;;;;;;;135.98;42.65;;;;;;;;;;5122548;27;20037;-77
2020/12/18 05:07:39;;;;;;;128.95;43.55;;;;;;;;;;5122699;27;20027;-77
2020/12/18 05:10:09;;;;;;;132.32;43.08;;;;;;;;;;5140401;27;20026;-77
2020/12/18 05:12:36;;;;;;;166.20;51.38;;;;;;;;;;5140856;27;20035;-76
2020/12/18 05:15:04;;;;;;;148.38;46.97;;;;;;;;;;5140790;27;20043;-76
2020/12/18 05:17:30;;;;;;;135.48;44.70;;;;;;;;;;5140397;27;20327;-77
2020/12/18 05:19:57;;;;;;;133.73;45.65;;;;;;;;;;5140256;27;20308;-77
2020/12/18 05:22:24;;;;;;;120.78;42.85;;;;;;;;;;5140362;27;20019;-77
2020/12/18 05:24:50;;;;;;;129.88;46.03;;;;;;;;;;5140537;27;20043;-77
2020/12/18 05:27:17;;;;;;;131.32;46.85;;;;;;;;;;5140163;27;20049;-77
2020/12/18 05:29:43;;;;;;;152.88;51.55;;;;;;;;;;5121975;27;20031;-77
2020/12/18 05:32:12;;;;;;;115.20;40.05;;;;;;;;;;5140335;27;20027;-78
2020/12/18 05:34:39;;;;;;;124.00;42.58;;;;;;;;;;5122083;27;20113;-78
2020/12/18 05:37:05;;;;;;;125.80;41.42;;;;;;;;;;5140211;27;20023;-78
2020/12/18 05:39:33;;;;;;;117.20;39.80;;;;;;;;;;5140251;27;20015;-76
2020/12/18 05:42:00;;;;;;;123.78;40.03;;;;;;;;;;5139903;27;20051;-78
2020/12/18 05:44:27;;;;;;;119.55;42.08;;;;;;;;;;5139947;27;20020;-78
2020/12/18 05:47:01;;;;;;;98.80;36.17;;;;;;;;;;5140692;27;20250;-78
2020/12/18 05:49:28;;;;;;;93.28;34.08;;;;;;;;;;5139947;27;20031;-79
2020/12/18 05:51:54;;;;;;;87.30;33.47;;;;;;;;;;5138602;27;20038;-78
2020/12/18 05:54:21;;;;;;;91.55;33.08;;;;;;;;;;5139413;27;20023;-79
2020/12/18 05:56:48;;;;;;;80.95;30.95;;;;;;;;;;5139339;27;20019;-77
2020/12/18 05:59:15;;;;;;;75.45;28.52;;;;;;;;;;5140169;27;20030;-77
2020/12/18 06:01:45;;;;;;;79.00;28.67;;;;;;;;;;5139916;27;20113;-76
2020/12/18 06:04:19;;;;;;;78.70;28.48;;;;;;;;;;5140032;27;20039;-77
2020/12/18 06:06:46;;;;;;;77.20;29.92;;;;;;;;;;5139713;27;20025;-77
2020/12/18 06:09:14;;;;;;;88.88;32.95;;;;;;;;;;5139640;27;20023;-77
2020/12/18 06:11:41;;;;;;;84.10;32.33;;;;;;;;;;5139632;27;20032;-77
2020/12/18 06:14:08;;;;;;;71.20;28.35;;;;;;;;;;5139426;27;20026;-77
2020/12/18 06:16:45;;;;;;;77.10;28.85;;;;;;;;;;5139472;27;20051;-77
2020/12/18 06:19:12;;;;;;;80.57;29.08;;;;;;;;;;5139294;27;20024;-77
2020/12/18 06:21:38;;;;;;;86.07;30.73;;;;;;;;;;5139669;27;20030;-77
2020/12/18 06:24:05;;;;;;;89.30;31.80;;;;;;;;;;5121192;27;20054;-77
2020/12/18 06:26:31;;;;;;;82.20;31.55;;;;;;;;;;5139366;27;20027;-77
2020/12/18 06:29:05;;;;;;;82.30;30.42;;;;;;;;;;5139524;27;20023;-77
2020/12/18 06:31:32;;;;;;;89.32;33.17;;;;;;;;;;5139201;27;20056;-77
2020/12/18 06:33:59;;;;;;;83.18;31.67;;;;;;;;;;5139071;27;20029;-79
2020/12/18 06:36:48;;;;;;;91.75;34.20;;;;;;;;;;5139400;27;20016;-79
2020/12/18 06:39:38;;;;;;;118.47;38.42;;;;;;;;;;5036196;28;20037;-78
2020/12/18 06:42:17;;;;;;;119.97;39.05;;;;;;;;;;4976888;28;20086;-78
2020/12/18 06:44:53;;;;;;;108.15;35.28;;;;;;;;;;4977082;28;20081;-79
2020/12/18 06:47:37;;;;;;;132.20;39.58;;;;;;;;;;4977027;28;20035;-79
2020/12/18 06:50:10;;;;;;;136.95;41.05;;;;;;;;;;4977068;28;20038;-79
2020/12/18 06:52:36;;;;;;;118.55;39.00;;;;;;;;;;4977180;28;20035;-79
2020/12/18 06:55:03;;;;;;;160.85;53.00;;;;;;;;;;4977030;28;20414;-78
2020/12/18 06:57:29;;;;;;;123.72;45.85;;;;;;;;;;4976837;28;20039;-79
2020/12/18 07:00:13;;;;;;;118.43;48.78;;;;;;;;;;4977114;28;20038;-79
2020/12/18 07:02:39;;;;;;;118.65;47.58;;;;;;;;;;4976833;28;20035;-80
2020/12/18 07:05:05;;;;;;;106.72;43.80;;;;;;;;;;4976874;28;20033;-79
2020/12/18 07:07:41;;;;;;;121.10;46.47;;;;;;;;;;4976853;28;20031;-77
2020/12/18 07:10:08;;;;;;;108.68;44.17;;;;;;;;;;4976845;28;20085;-79
2020/12/18 07:12:36;;;;;;;106.90;41.40;;;;;;;;;;4976154;28;20133;-78
2020/12/18 07:15:05;;;;;;;105.60;43.97;;;;;;;;;;4978836;28;20457;-78
2020/12/18 07:17:32;;;;;;;98.50;39.45;;;;;;;;;;5058665;28;20067;-78
2020/12/18 07:19:58;;;;;;;108.70;43.90;;;;;;;;;;5131394;27;20106;-79
2020/12/18 07:22:24;;;;;;;175.13;64.38;;;;;;;;;;5137714;27;20047;-78
2020/12/18 07:24:50;;;;;;;144.32;59.53;;;;;;;;;;5138315;27;20027;-81
2020/12/18 07:27:16;;;;;;;116.15;50.58;;;;;;;;;;5138285;27;20294;-81
2020/12/18 07:29:42;;;;;;;106.55;43.42;;;;;;;;;;5119798;27;20358;-81
2020/12/18 07:32:09;;;;;;;97.65;42.10;;;;;;;;;;5138211;27;20020;-81
2020/12/18 07:34:35;;;;;;;114.95;46.15;;;;;;;;;;5120026;28;20057;-81
2020/12/18 07:37:13;;;;;;;102.63;43.97;;;;;;;;;;5120075;28;20409;-81
2020/12/18 07:39:39;;;;;;;112.20;44.63;;;;;;;;;;5119652;28;20409;-81
2020/12/18 07:42:05;;;;;;;126.82;46.95;;;;;;;;;;5137976;27;20481;-81
2020/12/18 07:44:31;;;;;;;115.45;46.53;;;;;;;;;;5138086;27;20027;-81
2020/12/18 07:46:59;;;;;;;118.80;49.97;;;;;;;;;;5137893;28;20423;-81
2020/12/18 07:49:27;;;;;;;147.75;53.78;;;;;;;;;;5138043;28;20023;-81
2020/12/18 07:51:54;;;;;;;157.95;56.20;;;;;;;;;;5137889;28;20049;-82
2020/12/18 07:54:20;;;;;;;143.25;55.13;;;;;;;;;;5138195;28;20015;-82
2020/12/18 07:56:47;;;;;;;132.43;52.15;;;;;;;;;;5120047;28;20059;-82
2020/12/18 07:59:14;;;;;;;132.55;56.28;;;;;;;;;;5138153;28;20396;-81
2020/12/18 08:01:40;;;;;;;114.15;48.92;;;;;;;;;;5137908;28;20042;-81
2020/12/18 08:04:09;;;;;;;102.93;44.35;;;;;;;;;;5137976;28;20019;-81
2020/12/18 08:06:39;;;;;;;185.48;46.03;;;;;;;;;;5137829;28;20030;-81
2020/12/18 08:09:09;;;;;;;120.18;40.15;;;;;;;;;;5137886;28;20034;-81
2020/12/18 08:11:36;;;;;;;111.25;47.53;;;;;;;;;;5138042;28;20031;-80
2020/12/18 08:14:03;;;;;;;189.07;101.20;;;;;;;;;;5137821;28;20064;-81
2020/12/18 08:16:30;;;;;;;252.43;147.32;;;;;;;;;;5137490;28;20056;-80
2020/12/18 08:19:00;;;;;;;239.68;138.32;;;;;;;;;;5137681;28;20046;-81
2020/12/18 08:21:46;;;;;;;208.60;115.07;;;;;;;;;;5137771;28;20019;-82
2020/12/18 08:24:25;;;;;;;139.27;67.22;;;;;;;;;;5138909;27;20320;-82
2020/12/18 08:26:55;;;;;;;124.00;56.35;;;;;;;;;;5123574;27;20421;-82
2020/12/18 08:29:22;;;;;;;87.57;38.70;;;;;;;;;;5141745;27;20029;-82
2020/12/18 08:31:48;;;;;;;101.03;39.63;;;;;;;;;;5141045;27;20015;-83
2020/12/18 08:34:23;;;;;;;86.05;36.90;;;;;;;;;;5141741;27;20034;-82
2020/12/18 08:36:49;;;;;;;81.95;34.15;;;;;;;;;;5123493;27;20019;-83
2020/12/18 08:39:15;;;;;;;64.30;29.65;;;;;;;;;;5141677;27;20026;-83
2020/12/18 08:41:44;;;;;;;49.42;25.58;;;;;;;;;;5141568;27;20059;-83
2020/12/18 08:44:11;;;;;;;52.33;23.80;;;;;;;;;;5141824;27;20030;-84
2020/12/18 08:46:38;;;;;;;49.50;21.85;;;;;;;;;;5141520;27;20027;-83
2020/12/18 08:49:12;;;;;;;38.20;20.17;;;;;;;;;;5141584;27;20027;-84
2020/12/18 08:51:38;;;;;;;32.05;18.73;;;;;;;;;;5141529;27;20027;-83
2020/12/18 08:54:19;;;;;;;36.33;19.65;;;;;;;;;;5141394;27;20432;-84
2020/12/18 08:56:45;;;;;;;37.40;21.75;;;;;;;;;;5141094;27;20114;-83
2020/12/18 08:59:15;;;;;;;35.40;18.88;;;;;;;;;;5141326;27;20019;-84
2020/12/18 09:01:48;;;;;;;47.55;23.67;;;;;;;;;;5141224;27;20031;-83
2020/12/18 09:04:14;;;;;;;47.33;25.77;;;;;;;;;;5141493;27;20033;-83
2020/12/18 09:06:50;;;;;;;53.40;24.55;;;;;;;;;;5141222;27;20015;-84
2020/12/18 09:09:17;;;;;;;59.38;30.50;;;;;;;;;;5141165;27;20439;-84
2020/12/18 09:11:45;;;;;;;52.47;25.63;;;;;;;;;;5141139;27;20409;-83
2020/12/18 09:14:31;;;;;;;52.35;25.73;;;;;;;;;;5141319;27;20023;-84
2020/12/18 09:16:58;;;;;;;175.73;116.03;;;;;;;;;;5140999;27;20030;-84
2020/12/18 09:19:24;;;;;;;73.65;39.08;;;;;;;;;;5140690;27;20066;-82
2020/12/18 09:21:50;;;;;;;67.68;34.15;;;;;;;;;;5140698;27;20023;-81
2020/12/18 09:24:19;;;;;;;65.18;30.83;;;;;;;;;;5122363;27;20029;-81
2020/12/18 09:26:45;;;;;;;165.50;96.95;;;;;;;;;;5140862;27;20141;-82
2020/12/18 09:29:17;;;;;;;52.47;27.63;;;;;;;;;;5140695;27;20027;-82
2020/12/18 09:31:43;;;;;;;;;;;;;;;;;;5104643;27;20115;-82
2020/12/18 09:34:16;;;;;;;52.40;24.48;;;;;;;;;;5122404;27;19904;-82
2020/12/18 09:36:42;;;;;;;60.25;29.25;;;;;;;;;;5140130;27;20397;-83
2020/12/18 09:39:08;;;;;;;48.00;23.65;;;;;;;;;;5140542;27;20312;-83
2020/12/18 09:41:34;;;;;;;64.57;31.67;;;;;;;;;;5121993;27;20142;-83
2020/12/18 09:44:01;;;;;;;215.90;86.78;;;;;;;;;;5122343;27;20023;-83
2020/12/18 09:46:27;;;;;;;61.33;28.02;;;;;;;;;;5140377;27;20020;-83
2020/12/18 09:48:53;;;;;;;56.72;26.02;;;;;;;;;;5140301;27;20039;-82
2020/12/18 09:51:19;;;;;;;34.90;19.63;;;;;;;;;;5139801;27;20019;-82
2020/12/18 09:53:46;;;;;;;143.10;59.13;;;;;;;;;;5139999;27;20023;-82
2020/12/18 09:56:12;;;;;;;62.95;29.63;;;;;;;;;;5140141;27;20027;-82
2020/12/18 09:58:38;;;;;;;54.55;24.90;;;;;;;;;;5122133;27;20031;-82
2020/12/18 10:01:05;;;;;;;204.43;83.20;;;;;;;;;;5140174;27;20080;-83
2020/12/18 10:03:31;;;;;;;92.53;40.95;;;;;;;;;;5121763;27;20460;-82
2020/12/18 10:05:57;;;;;;;62.25;29.88;;;;;;;;;;5121789;27;20035;-82
2020/12/18 10:08:23;;;;;;;41.08;23.27;;;;;;;;;;5121254;27;20077;-83
2020/12/18 10:10:49;;;;;;;162.98;69.30;;;;;;;;;;5139517;27;20024;-83
2020/12/18 10:13:16;;;;;;;41.90;23.40;;;;;;;;;;5121316;27;20031;-82
2020/12/18 10:15:42;;;;;;;34.08;19.95;;;;;;;;;;5121361;27;20023;-82
2020/12/18 10:18:08;;;;;;;43.63;25.60;;;;;;;;;;5139207;27;20023;-82
2020/12/18 10:20:34;;;;;;;45.42;25.25;;;;;;;;;;5139602;27;20027;-81
2020/12/18 10:23:00;;;;;;;66.03;33.33;;;;;;;;;;5139533;27;20072;-82
2020/12/18 10:25:26;;;;;;;51.35;24.52;;;;;;;;;;5139501;27;20076;-82
2020/12/18 10:27:52;;;;;;;48.35;23.45;;;;;;;;;;5139741;27;20027;-82
2020/12/18 10:30:20;;;;;;;38.00;20.52;;;;;;;;;;5139484;27;20054;-82
2020/12/18 10:32:46;;;;;;;47.75;27.38;;;;;;;;;;5139226;27;20030;-82
2020/12/18 10:35:12;;;;;;;57.63;33.42;;;;;;;;;;5139362;27;20313;-81
2020/12/18 10:37:39;;;;;;;246.25;100.38;;;;;;;;;;5139146;27;20015;-83
2020/12/18 10:40:05;;;;;;;76.53;37.63;;;;;;;;;;5121174;27;20038;-82
2020/12/18 10:42:32;;;;;;;45.65;28.38;;;;;;;;;;5139058;27;20353;-82
2020/12/18 10:44:58;;;;;;;46.42;28.10;;;;;;;;;;5120818;27;20362;-81
2020/12/18 10:47:24;;;;;;;37.88;20.48;;;;;;;;;;5138182;27;20035;-80
2020/12/18 10:49:50;;;;;;;98.70;46.80;;;;;;;;;;5139013;27;20023;-81
2020/12/18 10:52:16;;;;;;;172.48;75.43;;;;;;;;;;5138504;27;20019;-86
2020/12/18 10:54:43;;;;;;;43.40;24.08;;;;;;;;;;5138739;27;20049;-73
2020/12/18 10:57:09;;;;;;;45.60;27.83;;;;;;;;;;5138908;27;20019;-74
2020/12/18 10:59:35;;;;;;;51.05;29.52;;;;;;;;;;5138221;27;20022;-73
2020/12/18 11:02:02;;;;;;;65.38;36.90;;;;;;;;;;5120499;27;20027;-74
2020/12/18 11:04:29;;;;;;;35.88;18.00;;;;;;;;;;5138715;27;20031;-75
2020/12/18 11:06:55;;;;;;;28.25;14.65;;;;;;;;;;5138729;27;20027;-73
